Time;durP1;ratioP1;P1;durP2;ratioP2;P2;SDS_P1;SDS_P2;PMS_P1;PMS_P2;Temp;Humidity;BMP_temperature;BMP_pressure;BME280_temperature;BME280_humidity;BME280_pressure;Samples;Min_cycle;Max_cycle;Signal;HPM_P1;HPM_P2
2023/01/21 00:02:12;;;;;;;25.20;20.90;;;;;;;-0.32;84.42;101691.72;5113271;28;20684;-75
2023/01/21 00:04:39;;;;;;;30.40;20.73;;;;;;;-0.39;84.70;101686.28;5113351;28;20214;-74
2023/01/21 00:07:05;;;;;;;27.97;20.87;;;;;;;-0.33;84.01;101684.00;5113473;28;20203;-75
2023/01/21 00:09:32;;;;;;;28.50;19.60;;;;;;;-0.44;83.77;101698.88;5113230;28;20223;-75
2023/01/21 00:12:01;;;;;;;28.83;20.93;;;;;;;-0.45;84.54;101699.69;5113025;28;20224;-74
2023/01/21 00:14:28;;;;;;;27.33;20.40;;;;;;;-0.47;84.61;101694.50;5113083;28;20244;-74
2023/01/21 00:16:56;;;;;;;23.10;19.13;;;;;;;-0.49;84.31;101692.66;5113270;28;20205;-74
2023/01/21 00:19:23;;;;;;;26.37;19.17;;;;;;;-0.44;83.96;101692.06;5113318;28;20227;-74
2023/01/21 00:21:49;;;;;;;24.70;19.00;;;;;;;-0.43;83.65;101703.22;5112916;28;20196;-75
2023/01/21 00:24:16;;;;;;;23.93;20.20;;;;;;;-0.42;84.03;101708.41;5112803;28;20232;-73
2023/01/21 00:26:43;;;;;;;31.97;20.77;;;;;;;-0.35;83.98;101708.69;5104507;28;20202;-74
2023/01/21 00:29:11;;;;;;;29.30;20.57;;;;;;;-0.45;84.86;101704.81;5112981;28;20223;-74
2023/01/21 00:31:37;;;;;;;26.37;19.10;;;;;;;-0.45;84.86;101708.25;5112553;28;20276;-74
2023/01/21 00:34:05;;;;;;;29.10;19.93;;;;;;;-0.51;84.54;101710.53;5112886;28;20268;-74
2023/01/21 00:36:31;;;;;;;24.27;19.53;;;;;;;-0.58;84.77;101715.31;5112716;28;20204;-74
2023/01/21 00:38:58;;;;;;;29.63;21.27;;;;;;;-0.52;84.69;101713.03;5113079;28;20228;-74
2023/01/21 00:41:25;;;;;;;35.43;21.93;;;;;;;-0.49;84.83;101713.19;5112563;28;20693;-75
2023/01/21 00:43:52;;;;;;;27.17;20.50;;;;;;;-0.47;84.48;101719.25;5112999;28;20298;-75
2023/01/21 00:46:19;;;;;;;41.43;23.20;;;;;;;-0.45;84.87;101718.53;5112768;28;20201;-75
2023/01/21 00:48:46;;;;;;;36.03;23.53;;;;;;;-0.44;84.94;101710.03;5112517;28;20290;-75
2023/01/21 00:51:13;;;;;;;41.00;23.50;;;;;;;-0.41;85.36;101702.47;5112267;28;20261;-74
2023/01/21 00:53:41;;;;;;;40.80;24.20;;;;;;;-0.38;85.22;101701.72;5112533;28;20264;-74
2023/01/21 00:56:10;;;;;;;42.53;25.43;;;;;;;-0.38;84.96;101698.28;5104200;28;20288;-74
2023/01/21 00:58:37;;;;;;;43.20;24.33;;;;;;;-0.40;85.61;101700.75;5111653;28;20706;-74
2023/01/21 01:01:05;;;;;;;38.13;24.47;;;;;;;-0.40;85.23;101703.34;5112126;28;20727;-75
2023/01/21 01:03:33;;;;;;;32.17;21.93;;;;;;;-0.39;85.46;101707.66;5112924;28;20256;-75
2023/01/21 01:06:04;;;;;;;46.57;24.00;;;;;;;-0.47;85.28;101721.84;5112168;28;20203;-75
2023/01/21 01:08:33;;;;;;;33.93;24.00;;;;;;;-0.51;85.37;101723.38;5112452;28;20220;-75
2023/01/21 01:10:59;;;;;;;38.07;23.27;;;;;;;-0.54;85.07;101736.03;5112148;28;20253;-75
2023/01/21 01:13:26;;;;;;;38.90;23.87;;;;;;;-0.54;84.70;101741.16;5112199;28;20294;-75
2023/01/21 01:15:54;;;;;;;35.20;23.93;;;;;;;-0.49;85.06;101747.41;5112162;28;20199;-75
2023/01/21 01:18:21;;;;;;;34.70;24.37;;;;;;;-0.53;84.62;101747.19;5112255;28;20256;-75
2023/01/21 01:20:47;;;;;;;30.33;22.93;;;;;;;-0.60;84.64;101756.25;5112253;28;20279;-75
2023/01/21 01:23:14;;;;;;;32.83;22.63;;;;;;;-0.64;85.22;101756.91;5112275;28;20200;-75
2023/01/21 01:25:42;;;;;;;35.63;23.30;;;;;;;-0.73;85.22;101762.50;5103334;28;20670;-75
2023/01/21 01:28:08;;;;;;;36.00;22.07;;;;;;;-0.75;84.93;101752.94;5112052;28;20219;-75
2023/01/21 01:30:35;;;;;;;28.80;22.30;;;;;;;-0.77;85.44;101762.25;5111773;28;20588;-75
2023/01/21 01:33:02;;;;;;;40.73;25.07;;;;;;;-0.67;85.15;101759.34;5111916;28;20224;-75
2023/01/21 01:35:29;;;;;;;39.20;24.80;;;;;;;-0.61;85.69;101755.38;5112253;28;20199;-75
2023/01/21 01:37:55;;;;;;;40.13;24.57;;;;;;;-0.55;85.79;101756.50;5112160;28;20227;-75
2023/01/21 01:40:21;;;;;;;40.07;24.63;;;;;;;-0.52;86.29;101752.38;5111846;28;20209;-75
2023/01/21 01:42:49;;;;;;;34.60;24.03;;;;;;;-0.48;86.34;101746.56;5111953;28;20196;-75
2023/01/21 01:45:19;;;;;;;34.17;23.37;;;;;;;-0.53;86.40;101740.38;5111970;28;20253;-75
2023/01/21 01:47:56;;;;;;;37.70;24.47;;;;;;;-0.46;87.26;101733.81;5111808;28;20441;-75
2023/01/21 01:50:25;;;;;;;38.73;25.03;;;;;;;-0.45;87.46;101726.22;5112032;28;20193;-74
2023/01/21 01:52:52;;;;;;;45.40;26.43;;;;;;;-0.37;87.94;101718.00;5111992;28;20228;-75
2023/01/21 01:55:18;;;;;;;40.37;25.73;;;;;;;-0.36;87.82;101706.91;5104496;28;20216;-74
2023/01/21 01:57:49;;;;;;;41.43;25.20;;;;;;;-0.32;87.68;101716.50;5110434;28;20219;-74
2023/01/21 02:00:19;;;;;;;39.80;27.13;;;;;;;-0.32;87.54;101716.50;5111836;28;20268;-74
2023/01/21 02:03:43;;;;;;;36.73;24.90;;;;;;;-0.32;87.90;101722.50;5111972;28;20209;-74
2023/01/21 02:05:33;;;;;;;39.77;24.37;;;;;;;-0.39;88.32;101719.63;5111647;28;20209;-75
2023/01/21 02:08:00;;;;;;;36.43;24.30;;;;;;;-0.38;88.65;101703.41;5111976;28;20271;-75
2023/01/21 02:10:27;;;;;;;42.33;26.27;;;;;;;-0.43;89.43;101691.25;5112793;28;20529;-74
2023/01/21 02:12:54;;;;;;;40.03;25.47;;;;;;;-0.41;89.15;101681.94;5115574;28;20276;-75
2023/01/21 02:15:25;;;;;;;35.67;25.13;;;;;;;-0.33;89.67;101681.44;5115767;27;20280;-74
2023/01/21 02:18:05;;;;;;;40.07;26.07;;;;;;;-0.22;89.24;101677.63;5115824;28;20223;-74
2023/01/21 02:20:52;;;;;;;44.37;23.87;;;;;;;-0.25;89.70;101688.66;5115446;28;20264;-74
2023/01/21 02:23:29;;;;;;;40.13;25.20;;;;;;;-0.25;89.22;101695.47;5115277;28;20733;-74
2023/01/21 02:26:30;;;;;;;33.33;22.47;;;;;;;-0.24;89.07;101702.34;5106898;28;20207;-75
2023/01/21 02:29:24;;;;;;;36.43;23.50;;;;;;;-0.23;88.78;101707.56;5115235;28;20280;-75
2023/01/21 02:32:05;;;;;;;37.83;23.20;;;;;;;-0.22;88.56;101718.69;5115062;28;20203;-74
2023/01/21 02:34:39;;;;;;;37.97;22.93;;;;;;;-0.45;89.57;101718.53;5115276;28;20204;-74
2023/01/21 02:37:10;;;;;;;31.40;22.30;;;;;;;-0.39;90.16;101715.38;5115594;28;20209;-74
2023/01/21 02:39:52;;;;;;;31.40;22.97;;;;;;;-0.27;89.10;101715.06;5115133;28;20227;-74
2023/01/21 02:42:26;;;;;;;36.87;22.23;;;;;;;-0.25;88.93;101723.69;5115317;28;20207;-74
2023/01/21 02:45:10;;;;;;;37.50;22.40;;;;;;;-0.21;88.82;101725.59;5114950;28;20634;-74
2023/01/21 02:47:44;;;;;;;36.03;20.87;;;;;;;-0.16;88.71;101730.91;5114924;28;20200;-74
2023/01/21 02:50:18;;;;;;;29.20;21.37;;;;;;;-0.17;88.33;101745.44;5114524;28;20239;-74
2023/01/21 02:52:44;;;;;;;29.33;21.90;;;;;;;-0.20;88.43;101750.41;5114766;28;20569;-74
2023/01/21 02:55:15;;;;;;;31.47;22.33;;;;;;;-0.17;88.75;101753.16;5105329;28;20213;-74
2023/01/21 02:57:46;;;;;;;31.53;21.60;;;;;;;-0.21;88.67;101751.25;5112957;28;20229;-74
2023/01/21 03:00:17;;;;;;;39.33;23.17;;;;;;;-0.18;88.49;101756.50;5114452;28;20212;-74
2023/01/21 03:03:03;;;;;;;36.43;22.47;;;;;;;-0.16;88.66;101757.44;5114560;28;20208;-74
2023/01/21 03:05:40;;;;;;;35.90;23.33;;;;;;;-0.23;88.96;101748.59;5114721;28;20207;-75
2023/01/21 03:08:12;;;;;;;33.60;22.67;;;;;;;-0.18;89.09;101753.94;5114401;28;20726;-74
2023/01/21 03:10:42;;;;;;;36.37;21.50;;;;;;;-0.16;89.55;101752.31;5114351;28;20203;-74
2023/01/21 03:16:55;;;;;;;31.43;22.53;;;;;;;-0.09;89.37;101762.06;5114552;28;20280;-74
2023/01/21 03:18:54;;;;;;;37.20;22.47;;;;;;;-0.07;89.13;101774.97;5114302;28;20230;-75
2023/01/21 03:21:25;;;;;;;37.30;22.13;;;;;;;-0.04;89.33;101768.31;5113476;27;20203;-74
2023/01/21 03:23:53;;;;;;;32.30;22.17;;;;;;;0.00;88.62;101771.91;5114050;28;20480;-74
2023/01/21 03:26:24;;;;;;;33.20;22.60;;;;;;;-0.10;89.12;101768.03;5105746;28;20259;-74
2023/01/21 03:28:54;;;;;;;35.23;22.53;;;;;;;-0.04;89.74;101772.53;5114164;28;20223;-75
2023/01/21 03:31:23;;;;;;;34.07;22.60;;;;;;;0.02;88.91;101766.81;5114010;28;20195;-74
2023/01/21 03:33:53;;;;;;;31.07;21.07;;;;;;;0.01;89.72;101767.63;5113747;28;20219;-74
2023/01/21 03:36:32;;;;;;;33.77;21.57;;;;;;;0.08;89.51;101762.84;5114211;28;20214;-75
2023/01/21 03:39:01;;;;;;;37.07;21.20;;;;;;;0.03;89.59;101772.03;5113984;28;20219;-74
2023/01/21 03:41:35;;;;;;;31.90;20.47;;;;;;;0.03;90.12;101766.88;5113691;28;20214;-74
2023/01/21 03:44:01;;;;;;;31.50;21.57;;;;;;;-0.05;90.41;101748.56;5113776;28;20213;-74
2023/01/21 03:46:36;;;;;;;27.73;19.57;;;;;;;0.07;89.92;101740.53;5113930;28;20545;-74
2023/01/21 03:49:06;;;;;;;32.17;21.60;;;;;;;0.13;89.82;101752.78;5113797;28;20220;-74
2023/01/21 03:51:38;;;;;;;27.10;19.77;;;;;;;0.12;89.27;101762.19;5113707;28;20207;-75
2023/01/21 03:54:05;;;;;;;30.43;19.83;;;;;;;0.13;89.45;101766.47;5113422;28;20228;-75
2023/01/21 03:56:31;;;;;;;27.20;20.03;;;;;;;0.07;90.26;101761.06;5105214;28;20204;-75
2023/01/21 03:58:57;;;;;;;28.10;19.57;;;;;;;0.10;90.05;101755.19;5113366;28;20223;-75
2023/01/21 04:01:24;;;;;;;28.03;21.00;;;;;;;0.14;89.72;101740.03;5113343;28;20234;-75
2023/01/21 04:03:50;;;;;;;28.17;19.17;;;;;;;0.16;90.43;101740.97;5113568;28;20196;-75
2023/01/21 04:06:18;;;;;;;22.73;17.87;;;;;;;0.18;90.07;101735.91;5113275;28;20680;-75
2023/01/21 04:08:46;;;;;;;25.10;18.97;;;;;;;0.19;89.81;101743.66;5113321;28;20657;-76
2023/01/21 04:11:13;;;;;;;27.37;17.93;;;;;;;0.27;89.71;101738.84;5113168;28;20207;-75
2023/01/21 04:13:39;;;;;;;26.27;17.13;;;;;;;0.27;89.08;101746.56;5113451;28;20227;-75
2023/01/21 04:16:07;;;;;;;24.10;16.23;;;;;;;0.35;89.27;101752.91;5113319;28;20277;-75
2023/01/21 04:18:33;;;;;;;23.07;17.70;;;;;;;0.35;88.75;101765.75;5113298;28;20226;-75
2023/01/21 04:21:00;;;;;;;21.60;17.43;;;;;;;0.37;89.69;101758.97;5112924;28;20207;-75
2023/01/21 04:23:26;;;;;;;26.17;17.93;;;;;;;0.28;89.23;101762.84;5113048;28;20237;-75
2023/01/21 04:25:54;;;;;;;20.97;17.23;;;;;;;0.31;89.55;101757.84;5104095;28;20718;-75
2023/01/21 04:28:21;;;;;;;18.80;16.10;;;;;;;0.30;89.21;101759.56;5113091;28;20226;-75
2023/01/21 04:30:48;;;;;;;21.37;16.67;;;;;;;0.33;89.79;101753.66;5112742;28;20210;-75
2023/01/21 04:33:14;;;;;;;23.53;16.53;;;;;;;0.45;90.01;101753.31;5105848;28;20255;-75
2023/01/21 04:35:41;;;;;;;22.90;16.37;;;;;;;0.38;90.12;101765.91;5094440;28;20734;-75
2023/01/21 04:38:07;;;;;;;21.37;16.17;;;;;;;0.39;89.76;101767.63;5106113;28;20269;-75
2023/01/21 04:40:33;;;;;;;18.37;16.20;;;;;;;0.44;89.13;101769.53;5112373;27;20665;-75
2023/01/21 04:43:01;;;;;;;20.93;16.27;;;;;;;0.39;89.83;101782.19;5113042;28;20694;-75
2023/01/21 04:45:27;;;;;;;20.17;15.87;;;;;;;0.47;89.25;101773.13;5112777;28;20205;-75
2023/01/21 04:47:54;;;;;;;26.97;17.47;;;;;;;0.41;89.56;101774.53;5112658;28;20372;-75
2023/01/21 04:50:20;;;;;;;21.93;16.77;;;;;;;0.42;90.17;101768.59;5112385;28;20263;-75
2023/01/21 04:52:47;;;;;;;22.47;16.30;;;;;;;0.42;90.16;101771.16;5112481;28;20222;-75
2023/01/21 04:55:13;;;;;;;18.00;15.50;;;;;;;0.39;89.57;101777.91;5112923;28;20268;-75
2023/01/21 04:57:39;;;;;;;20.90;15.23;;;;;;;0.40;89.35;101771.09;5112394;28;20261;-75
2023/01/21 05:00:09;;;;;;;18.50;16.10;;;;;;;0.42;90.09;101777.19;5112318;28;20739;-75
2023/01/21 05:02:35;;;;;;;17.90;13.83;;;;;;;0.48;89.25;101780.03;5112494;28;20280;-75
2023/01/21 05:05:02;;;;;;;18.43;14.47;;;;;;;0.52;89.27;101793.88;5089474;28;20217;-75
2023/01/21 05:07:28;;;;;;;17.83;13.77;;;;;;;0.55;89.07;101810.28;5096711;28;20225;-75
2023/01/21 05:09:54;;;;;;;17.27;15.57;;;;;;;0.56;88.13;101811.19;5091733;28;20620;-75
2023/01/21 05:12:21;;;;;;;20.13;15.00;;;;;;;0.49;88.83;101815.16;5092526;28;20246;-75
2023/01/21 05:14:47;;;;;;;16.87;13.73;;;;;;;0.54;88.93;101816.25;5091963;28;20261;-75
2023/01/21 05:17:15;;;;;;;19.37;14.73;;;;;;;0.57;88.70;101826.66;5091946;28;20266;-75
2023/01/21 05:19:41;;;;;;;18.60;14.70;;;;;;;0.55;88.65;101835.09;5091884;28;20221;-75
2023/01/21 05:22:08;;;;;;;22.17;16.50;;;;;;;0.54;88.75;101836.81;5091649;28;20677;-75
2023/01/21 05:24:34;;;;;;;18.47;15.33;;;;;;;0.51;89.53;101834.09;5092030;28;20220;-75
2023/01/21 05:27:01;;;;;;;18.23;15.17;;;;;;;0.56;89.08;101835.19;5091968;28;20205;-75
2023/01/21 05:29:27;;;;;;;18.43;15.47;;;;;;;0.55;89.38;101823.13;5091928;28;20233;-75
2023/01/21 05:31:53;;;;;;;18.97;14.97;;;;;;;0.59;88.84;101825.06;5091541;28;20210;-75
2023/01/21 05:34:21;;;;;;;24.57;17.17;;;;;;;0.61;88.30;101840.50;5086535;28;20765;-75
2023/01/21 05:36:48;;;;;;;23.50;17.57;;;;;;;0.58;89.24;101838.69;5101744;28;20654;-75
2023/01/21 05:39:14;;;;;;;25.10;17.10;;;;;;;0.62;89.28;101844.00;5111959;28;20713;-75
2023/01/21 05:41:41;;;;;;;19.07;15.57;;;;;;;0.68;88.33;101849.41;5111735;28;20739;-75
2023/01/21 05:44:08;;;;;;;25.53;17.53;;;;;;;0.63;87.88;101867.16;5112265;28;20207;-75
2023/01/21 05:46:34;;;;;;;22.40;17.53;;;;;;;0.66;88.76;101869.00;5115462;28;20737;-75
2023/01/21 05:49:01;;;;;;;27.63;17.73;;;;;;;0.61;88.12;101881.63;5116263;28;20229;-75
2023/01/21 05:51:29;;;;;;;18.83;16.93;;;;;;;0.60;88.52;101885.03;5115650;28;20269;-75
2023/01/21 05:53:55;;;;;;;23.50;17.13;;;;;;;0.60;88.05;101887.59;5116055;27;20714;-74
2023/01/21 05:56:21;;;;;;;23.93;17.67;;;;;;;0.56;88.87;101885.69;5116352;28;20203;-75
2023/01/21 05:58:48;;;;;;;25.47;18.90;;;;;;;0.60;88.83;101874.75;5115989;28;20223;-75
2023/01/21 06:01:14;;;;;;;19.80;17.63;;;;;;;0.59;89.03;101872.97;5115474;28;20219;-74
2023/01/21 06:03:40;;;;;;;27.60;18.40;;;;;;;0.54;89.11;101849.66;5112286;28;20201;-74
2023/01/21 06:06:07;;;;;;;22.90;19.57;;;;;;;0.64;89.86;101848.38;5106924;28;20207;-75
2023/01/21 06:08:35;;;;;;;20.17;18.03;;;;;;;0.67;89.10;101853.63;5115647;28;20224;-74
2023/01/21 06:11:01;;;;;;;31.63;19.30;;;;;;;0.66;89.26;101857.03;5103607;28;20615;-75
2023/01/21 06:13:28;;;;;;;23.70;19.33;;;;;;;0.74;89.02;101858.25;5107071;28;20292;-75
2023/01/21 06:15:55;;;;;;;25.23;19.27;;;;;;;0.72;88.98;101866.69;5115571;28;20204;-74
2023/01/21 06:18:22;;;;;;;20.03;17.17;;;;;;;0.73;89.10;101871.91;5098645;28;20262;-75
2023/01/21 06:20:48;;;;;;;22.30;16.93;;;;;;;0.73;88.50;101882.19;5106541;28;20208;-74
2023/01/21 06:23:15;;;;;;;25.97;17.80;;;;;;;0.76;87.89;101902.00;5115366;28;20670;-75
2023/01/21 06:25:42;;;;;;;18.70;16.37;;;;;;;0.74;87.30;101921.63;5115323;28;20210;-75
2023/01/21 06:28:10;;;;;;;22.10;17.17;;;;;;;0.70;87.34;101932.56;5098094;28;20232;-75
2023/01/21 06:30:37;;;;;;;19.77;16.27;;;;;;;0.71;87.03;101942.03;5112571;28;20669;-75
2023/01/21 06:33:03;;;;;;;22.83;17.37;;;;;;;0.66;87.92;101944.41;5115092;28;20207;-74
2023/01/21 06:35:30;;;;;;;22.73;17.50;;;;;;;0.59;88.44;101927.81;5115577;28;20256;-74
2023/01/21 06:37:57;;;;;;;21.47;18.27;;;;;;;0.56;89.49;101904.56;5115324;28;20281;-75
2023/01/21 06:40:24;;;;;;;23.43;17.57;;;;;;;0.67;88.84;101914.44;5115343;28;20256;-75
2023/01/21 06:42:53;;;;;;;24.90;17.77;;;;;;;0.70;88.08;101923.16;5104115;28;20603;-75
2023/01/21 06:45:19;;;;;;;19.87;17.73;;;;;;;0.69;88.17;101939.38;5106455;28;20277;-74
2023/01/21 06:47:46;;;;;;;21.00;17.23;;;;;;;0.70;87.89;101942.84;5114747;28;20231;-75
2023/01/21 06:50:14;;;;;;;21.13;16.83;;;;;;;0.67;87.62;101951.28;5114886;28;20213;-74
2023/01/21 06:52:42;;;;;;;19.47;17.40;;;;;;;0.71;87.77;101960.00;5115051;28;20628;-75
2023/01/21 06:55:09;;;;;;;20.67;16.33;;;;;;;0.72;87.35;101967.81;5114682;28;20223;-74
2023/01/21 06:57:37;;;;;;;23.87;17.17;;;;;;;0.71;87.21;101978.00;5113686;28;20257;-74
2023/01/21 07:00:07;;;;;;;21.87;17.17;;;;;;;0.65;88.17;101981.16;5107502;28;20206;-75
2023/01/21 07:02:34;;;;;;;22.23;16.23;;;;;;;0.71;87.13;101978.88;5100318;28;20205;-75
2023/01/21 07:05:00;;;;;;;18.67;16.77;;;;;;;0.74;87.79;101996.16;5114687;28;20208;-75
2023/01/21 07:07:27;;;;;;;20.97;15.57;;;;;;;0.71;87.20;102004.56;5114522;28;20391;-75
2023/01/21 07:09:53;;;;;;;21.57;15.93;;;;;;;0.72;87.56;102006.34;5114396;28;20280;-75
2023/01/21 07:12:20;;;;;;;20.93;15.83;;;;;;;0.72;87.07;102019.19;5114435;28;20254;-74
2023/01/21 07:14:46;;;;;;;21.97;15.53;;;;;;;0.69;87.30;102010.47;5114283;28;20221;-74
2023/01/21 07:17:15;;;;;;;21.07;16.43;;;;;;;0.65;88.64;102001.72;5109988;28;20552;-74
2023/01/21 07:19:41;;;;;;;24.67;17.50;;;;;;;0.72;88.67;101993.50;5105549;28;20224;-74
2023/01/21 07:22:08;;;;;;;22.33;15.27;;;;;;;0.73;88.14;101995.28;5114109;28;20287;-74
2023/01/21 07:24:34;;;;;;;20.17;16.03;;;;;;;0.75;88.34;101992.75;5114340;28;20295;-74
2023/01/21 07:27:00;;;;;;;19.73;14.73;;;;;;;0.78;87.50;101998.91;5114178;28;20256;-74
2023/01/21 07:29:28;;;;;;;19.17;14.93;;;;;;;0.76;88.19;102002.25;5113986;28;20220;-74
2023/01/21 07:31:54;;;;;;;20.93;15.37;;;;;;;0.78;88.29;102003.19;5113961;28;20257;-74
2023/01/21 07:34:22;;;;;;;17.83;15.93;;;;;;;0.75;88.83;102005.59;5103906;28;20268;-74
2023/01/21 07:36:48;;;;;;;20.77;16.23;;;;;;;0.77;88.20;102002.31;5105569;28;20207;-75
2023/01/21 07:39:14;;;;;;;16.80;14.07;;;;;;;0.77;88.04;102006.56;5114276;28;20223;-75
2023/01/21 07:41:41;;;;;;;15.77;14.10;;;;;;;0.82;87.32;102009.34;5113615;28;20257;-75
2023/01/21 07:44:08;;;;;;;19.20;14.50;;;;;;;0.72;87.89;102016.63;5101952;27;20774;-75
2023/01/21 07:46:35;;;;;;;16.43;13.37;;;;;;;0.79;88.34;102017.78;5111257;28;20672;-75
2023/01/21 07:49:01;;;;;;;15.90;12.37;;;;;;;0.75;88.05;102026.16;5113777;28;20227;-75
2023/01/21 07:51:29;;;;;;;17.43;13.67;;;;;;;0.71;87.89;102021.69;5113580;28;20265;-75
2023/01/21 07:53:55;;;;;;;17.47;14.97;;;;;;;0.78;88.14;102022.06;5113522;28;20272;-76
2023/01/21 07:56:23;;;;;;;18.10;15.47;;;;;;;0.71;88.31;102022.56;5115126;28;20745;-78
2023/01/21 07:58:50;;;;;;;18.80;14.80;;;;;;;0.76;88.10;102025.38;5116624;28;20605;-78
2023/01/21 08:01:16;;;;;;;19.97;13.80;;;;;;;0.75;88.46;102023.59;5104004;28;20199;-78
2023/01/21 08:03:43;;;;;;;16.10;12.87;;;;;;;0.73;87.83;102031.25;5111561;28;20617;-81
2023/01/21 08:06:09;;;;;;;17.90;14.03;;;;;;;0.70;88.15;102032.78;5122560;28;20201;-83
2023/01/21 08:08:37;;;;;;;18.90;13.90;;;;;;;0.77;87.75;102043.44;5104863;28;20304;-81
2023/01/21 08:11:03;;;;;;;17.60;14.27;;;;;;;0.83;87.56;102049.66;5094510;28;20180;-82
2023/01/21 08:13:30;;;;;;;16.47;13.13;;;;;;;0.81;86.75;102057.28;5085766;28;20193;-81
2023/01/21 08:15:56;;;;;;;17.43;11.97;;;;;;;0.74;87.21;102058.69;5090960;28;20726;-80
2023/01/21 08:18:24;;;;;;;13.10;11.37;;;;;;;0.75;87.29;102055.34;5092159;28;20220;-79
2023/01/21 08:20:54;;;;;;;13.57;11.20;;;;;;;0.79;87.24;102067.53;5085394;28;20225;-78
2023/01/21 08:23:20;;;;;;;17.17;13.70;;;;;;;0.82;86.83;102087.34;5086404;28;20239;-79
2023/01/21 08:25:48;;;;;;;29.60;18.83;;;;;;;0.82;86.15;102101.88;5085144;28;20407;-78
2023/01/21 08:28:14;;;;;;;27.87;18.47;;;;;;;0.82;85.81;102110.47;5083449;28;20623;-78
2023/01/21 08:30:41;;;;;;;15.13;12.37;;;;;;;0.86;86.16;102120.09;5084703;28;20658;-79
2023/01/21 08:33:07;;;;;;;25.00;17.23;;;;;;;0.85;85.88;102120.88;5085925;28;20213;-79
2023/01/21 08:35:34;;;;;;;14.07;12.40;;;;;;;0.84;86.07;102134.56;5095495;28;20223;-78
2023/01/21 08:38:00;;;;;;;14.97;11.37;;;;;;;0.86;86.08;102135.50;5108115;28;20310;-78
2023/01/21 08:40:27;;;;;;;15.97;12.40;;;;;;;0.84;86.28;102149.13;5117392;27;20618;-78
2023/01/21 08:42:59;;;;;;;18.70;11.80;;;;;;;0.80;85.53;102142.94;5116250;28;20279;-78
2023/01/21 08:45:25;;;;;;;18.57;13.47;;;;;;;0.77;86.03;102147.91;5116850;28;20265;-77
2023/01/21 08:47:52;;;;;;;18.63;13.43;;;;;;;0.79;86.08;102147.19;5116613;27;20231;-78
2023/01/21 08:50:19;;;;;;;13.20;11.33;;;;;;;0.83;85.28;102158.50;5120781;28;20210;-81
2023/01/21 08:52:50;;;;;;;12.97;11.47;;;;;;;0.78;85.41;102180.53;5110743;28;20208;-77
2023/01/21 08:55:17;;;;;;;15.00;11.50;;;;;;;0.79;85.89;102185.75;5123612;28;20228;-78
2023/01/21 08:57:43;;;;;;;11.53;10.27;;;;;;;0.81;85.39;102179.78;5118771;28;20228;-78
2023/01/21 09:00:13;;;;;;;15.30;11.27;;;;;;;0.81;85.44;102174.66;5120695;28;20208;-81
2023/01/21 09:02:39;;;;;;;14.30;12.33;;;;;;;0.83;85.73;102179.06;5116463;28;20208;-80
2023/01/21 09:05:06;;;;;;;12.40;10.70;;;;;;;0.86;84.92;102183.47;5104748;28;20257;-79
2023/01/21 09:07:33;;;;;;;13.00;11.63;;;;;;;0.90;85.00;102193.97;5113721;28;20196;-80
2023/01/21 09:09:59;;;;;;;14.80;13.30;;;;;;;0.91;85.30;102195.75;5121714;28;20236;-80
2023/01/21 09:12:25;;;;;;;19.93;17.83;;;;;;;0.91;85.09;102202.56;5121559;28;20236;-80
2023/01/21 09:14:52;;;;;;;20.57;16.13;;;;;;;0.90;85.47;102199.13;5121245;27;20707;-81
2023/01/21 09:17:21;;;;;;;15.97;14.23;;;;;;;0.94;84.70;102207.88;5122428;28;20208;-81
2023/01/21 09:19:48;;;;;;;15.93;13.97;;;;;;;0.93;84.44;102213.81;5107736;28;20224;-82
2023/01/21 09:22:14;;;;;;;14.67;12.13;;;;;;;0.93;84.21;102217.28;5115405;28;20199;-79
2023/01/21 09:24:41;;;;;;;13.60;11.97;;;;;;;0.92;84.52;102220.66;5122868;28;20208;-79
2023/01/21 09:27:08;;;;;;;18.43;11.87;;;;;;;0.95;85.09;102214.75;5121793;28;20668;-81
2023/01/21 09:29:35;;;;;;;19.33;12.27;;;;;;;1.01;84.92;102212.47;5121928;28;20294;-80
2023/01/21 09:32:04;;;;;;;14.23;11.57;;;;;;;1.04;85.08;102207.50;5121426;28;20245;-81
2023/01/21 09:34:31;;;;;;;16.80;11.73;;;;;;;1.06;84.87;102203.31;5122134;28;20739;-80
2023/01/21 09:36:58;;;;;;;13.97;11.47;;;;;;;1.02;85.48;102208.25;5080678;28;20212;-80
2023/01/21 09:39:25;;;;;;;13.07;11.70;;;;;;;1.05;85.25;102201.56;5077322;28;20853;-80
2023/01/21 09:41:52;;;;;;;14.27;11.97;;;;;;;1.12;85.07;102208.75;5080937;28;20199;-81
2023/01/21 09:44:24;;;;;;;16.73;12.90;;;;;;;1.19;85.05;102204.81;5072125;28;20206;-80
2023/01/21 09:46:57;;;;;;;18.07;14.10;;;;;;;1.24;84.97;102210.16;5078135;28;20211;-79
2023/01/21 09:49:27;;;;;;;16.40;12.90;;;;;;;1.28;84.43;102217.22;5077162;28;20229;-81
2023/01/21 09:52:01;;;;;;;17.60;14.40;;;;;;;1.35;84.63;102217.59;5072033;28;20214;-80
2023/01/21 09:54:31;;;;;;;21.37;17.27;;;;;;;1.42;85.37;102216.16;5071846;28;20229;-80
2023/01/21 09:57:22;;;;;;;18.80;13.33;;;;;;;1.38;84.35;102230.56;5076600;28;20271;-79
2023/01/21 09:59:59;;;;;;;17.57;14.47;;;;;;;1.37;84.73;102239.13;5073769;28;21123;-79
2023/01/21 10:02:36;;;;;;;79.07;39.73;;;;;;;1.31;84.91;102246.53;5071088;28;20213;-81
2023/01/21 10:05:27;;;;;;;55.00;33.03;;;;;;;1.09;86.36;102220.56;5076688;28;20211;-80
2023/01/21 10:08:02;;;;;;;62.80;33.67;;;;;;;0.67;87.48;102189.38;5079203;28;20229;-80
2023/01/21 10:10:37;;;;;;;69.43;35.43;;;;;;;0.60;88.88;102139.41;5073580;28;20266;-81
2023/01/21 10:13:18;;;;;;;52.13;30.93;;;;;;;0.65;88.67;102113.91;5068730;28;20242;-81
2023/01/21 10:15:55;;;;;;;50.80;27.90;;;;;;;0.71;90.06;102081.66;5070607;28;20230;-80
2023/01/21 10:18:26;;;;;;;43.70;24.77;;;;;;;0.61;89.44;102076.03;5075706;28;20224;-80
2023/01/21 10:20:58;;;;;;;39.63;20.97;;;;;;;0.58;89.50;102067.38;5072678;28;20205;-80
2023/01/21 10:23:31;;;;;;;46.93;25.30;;;;;;;0.68;89.85;102043.00;5074299;28;20634;-80
2023/01/21 10:26:01;;;;;;;32.37;21.53;;;;;;;0.66;90.27;102043.75;5072270;28;20744;-81
2023/01/21 10:28:30;;;;;;;37.53;23.33;;;;;;;0.46;90.00;102047.94;5073283;28;20230;-80
2023/01/21 10:31:02;;;;;;;41.63;27.27;;;;;;;0.50;91.43;102017.31;5072829;28;20223;-80
2023/01/21 10:33:32;;;;;;;28.57;18.33;;;;;;;0.73;91.04;102000.41;5073122;28;20614;-79
2023/01/21 10:36:21;;;;;;;34.30;23.50;;;;;;;0.68;90.81;102009.59;5078039;28;20229;-80
2023/01/21 10:39:00;;;;;;;35.80;21.67;;;;;;;0.87;90.12;102011.31;5073517;28;20775;-81
2023/01/21 10:41:44;;;;;;;32.33;21.53;;;;;;;0.69;89.70;102028.44;5074786;28;20259;-82
2023/01/21 10:44:19;;;;;;;34.80;22.17;;;;;;;0.66;90.37;102018.91;5071917;28;20204;-81
2023/01/21 10:46:50;;;;;;;33.20;21.33;;;;;;;0.68;90.32;102016.44;5071524;28;20200;-81
2023/01/21 10:49:26;;;;;;;33.13;21.20;;;;;;;0.72;90.86;102003.78;5078728;28;20232;-81
2023/01/21 10:52:00;;;;;;;35.50;21.17;;;;;;;0.57;90.83;102001.34;5073489;28;20221;-82
2023/01/21 10:54:40;;;;;;;33.37;24.03;;;;;;;0.64;91.13;101984.56;5077822;28;20224;-81
2023/01/21 10:57:18;;;;;;;31.87;21.63;;;;;;;0.78;92.07;101980.06;5069121;28;20266;-81
2023/01/21 10:59:46;;;;;;;28.80;19.07;;;;;;;0.83;90.86;101977.69;5073656;28;20233;-81
2023/01/21 11:02:29;;;;;;;20.67;16.07;;;;;;;0.98;91.25;101976.69;5072045;28;20212;-82
2023/01/21 11:04:58;;;;;;;19.13;14.47;;;;;;;1.10;90.50;101990.91;5075575;28;20243;-81
2023/01/21 11:07:26;;;;;;;18.43;15.00;;;;;;;1.15;89.36;102009.97;5067264;28;20590;-81
2023/01/21 11:09:54;;;;;;;20.87;14.63;;;;;;;1.21;89.13;102045.38;5075336;28;20263;-81
2023/01/21 11:12:23;;;;;;;17.53;14.37;;;;;;;1.32;88.69;102062.19;5071408;28;20213;-80
2023/01/21 11:14:53;;;;;;;19.03;13.47;;;;;;;1.36;87.25;102088.13;5074570;28;20234;-80
2023/01/21 11:17:32;;;;;;;14.27;12.77;;;;;;;1.44;87.03;102116.78;5079714;28;20221;-81
2023/01/21 11:19:59;;;;;;;17.37;12.70;;;;;;;1.47;86.05;102132.38;5071994;28;20213;-80
2023/01/21 11:22:29;;;;;;;16.27;12.93;;;;;;;1.47;84.73;102173.53;5071387;28;20286;-80
2023/01/21 11:24:58;;;;;;;14.50;11.77;;;;;;;1.46;83.97;102204.34;5071516;28;20210;-82
2023/01/21 11:27:33;;;;;;;12.67;11.07;;;;;;;1.48;84.63;102220.72;5075325;28;20253;-80